Data for 01/19/2007

Time Sea-Level Adjusted Pressure Absolute Pressure Temperature Relative Humidity Dew Point   
(mb) (inHg) (mb) (inHg) (C) (F) (%) (C) (F)
00:05 1025 30.27 854 25.22 -4.8 23.3 61 -11.2 11.9
00:10 1025 30.27 854 25.22 -4.6 23.8 60 -11.2 11.9
00:15 1025 30.27 854 25.22 -4.7 23.5 59 -11.6 11
00:20 1025 30.27 854 25.22 -4.4 24 53 -12.7 9.1
00:25 1025 30.27 854 25.22 -4.1 24.7 53 -12.4 9.7
00:30 1025 30.27 854 25.22 -4.4 24.1 53 -12.5 9.4
00:35 1025 30.27 854 25.22 -4.2 24.4 50 -13.1 8.4
00:40 1025 30.27 854 25.22 -3.8 25.2 50 -12.8 9
00:45 1025 30.27 854 25.22 -3.5 25.6 48 -13 8.7
00:50 1025 30.27 854 25.22 -3.7 25.3 52 -12.3 9.9
00:55 1025 30.27 854 25.22 -3.8 25.2 49 -12.9 8.8
01:00 1025 30.27 854 25.22 -3.6 25.6 49 -12.9 8.8
01:05 1025 30.27 854 25.22 -3.4 25.8 49 -12.7 9.2
01:10 1025 30.27 854 25.22 -3.4 25.9 51 -12.2 10
01:15 1025 30.27 854 25.22 -3.5 25.7 50 -12.6 9.3
01:20 1025 30.27 854 25.22 -3.7 25.3 54 -11.8 10.8
01:25 1025 30.27 854 25.22 -3.9 25.1 49 -13 8.5
01:30 1025 30.27 854 25.22 -3.8 25.2 54 -11.9 10.6
01:35 1025 30.27 854 25.22 -3.8 25.1 54 -11.8 10.8
01:40 1025 30.27 854 25.22 -3.8 25.1 54 -11.8 10.8
01:45 1024 30.24 854 25.22 -3.8 25.1 52 -12.3 9.9
01:50 1025 30.27 854 25.22 -3.9 25 52 -12.5 9.5
01:55 1025 30.27 854 25.22 -3.9 25 54 -12 10.4
02:00 1024 30.24 854 25.22 -3.9 25.1 49 -13 8.5
02:05 1024 30.24 854 25.22 -3.9 25 50 -13 8.7
02:10 1024 30.24 854 25.22 -3.9 24.9 51 -12.7 9.1
02:15 1024 30.24 854 25.22 -3.8 25.2 54 -11.8 10.8
02:20 1024 30.24 854 25.22 -3.7 25.3 54 -11.8 10.8
02:25 1024 30.24 853 25.19 -3.9 24.9 54 -11.9 10.6
02:30 1024 30.24 853 25.19 -4.1 24.6 55 -11.9 10.5
02:35 1024 30.24 853 25.19 -4.2 24.4 57 -11.6 11.2
02:40 1024 30.24 853 25.19 -4.4 24.1 61 -10.9 12.4
02:45 1024 30.24 853 25.19 -4.8 23.4 62 -11.1 12.1
02:50 1024 30.24 853 25.19 -5 23.1 60 -11.6 11.1
02:55 1024 30.24 853 25.19 -4.9 23.2 57 -12.2 10.1
03:00 1024 30.24 853 25.19 -4.7 23.5 57 -12.1 10.3
03:05 1024 30.24 853 25.19 -4.7 23.6 55 -12.3 9.8
03:10 1024 30.24 853 25.19 -4.7 23.6 53 -12.8 9
03:15 1024 30.24 853 25.19 -4.5 23.9 53 -12.8 8.9
03:20 1024 30.24 853 25.19 -4.4 24 52 -13 8.7
03:25 1024 30.24 853 25.19 -4.3 24.3 50 -13.2 8.2
03:30 1024 30.24 853 25.19 -4.1 24.7 51 -12.7 9.1
03:35 1024 30.24 853 25.19 -4.2 24.4 51 -12.9 8.8
03:40 1024 30.24 853 25.19 -4.2 24.5 55 -12 10.4
03:45 1024 30.24 853 25.19 -4.3 24.2 56 -11.9 10.6
03:50 1024 30.24 853 25.19 -4.3 24.2 58 -11.3 11.6
03:55 1024 30.24 853 25.19 -4.5 23.9 59 -11.3 11.6
04:00 1023 30.21 853 25.19 -4.6 23.8 60 -11.2 11.9
04:05 1023 30.21 853 25.19 -4.7 23.5 59 -11.6 11.1
04:10 1024 30.24 853 25.19 -4.5 23.8 58 -11.7 11
04:15 1024 30.24 853 25.19 -4.1 24.5 58 -11.2 11.8
04:20 1024 30.24 853 25.19 -3.9 25.1 56 -11.3 11.6
04:25 1023 30.21 853 25.19 -4 24.9 58 -11 12.2
04:30 1024 30.24 853 25.19 -3.9 24.9 59 -10.8 12.5
04:35 1023 30.21 853 25.19 -3.9 25 60 -10.6 12.8
04:40 1024 30.24 853 25.19 -4 24.7 60 -10.8 12.6
04:45 1024 30.24 853 25.19 -4.1 24.6 56 -11.6 11.1
04:50 1024 30.24 853 25.19 -3.8 25.2 57 -11 12.2
04:55 1024 30.24 853 25.19 -3.5 25.7 58 -10.5 13
05:00 1024 30.24 853 25.19 -3.3 26 59 -10.2 13.6
05:05 1024 30.24 853 25.19 -3.3 26.1 58 -10.3 13.4
05:10 1024 30.24 853 25.19 -3.4 25.9 58 -10.5 13.1
05:15 1024 30.24 853 25.19 -3.9 25.1 58 -10.9 12.3
05:20 1024 30.24 853 25.19 -3.8 25.2 60 -10.4 13.2
05:25 1024 30.24 853 25.19 -3.7 25.3 59 -10.7 12.8
05:30 1023 30.21 853 25.19 -3.6 25.5 61 -10 14
05:35 1024 30.24 853 25.19 -3.8 25.2 64 -9.7 14.5
05:40 1024 30.24 853 25.19 -4.3 24.3 67 -9.5 14.8
05:45 1024 30.24 853 25.19 -4.2 24.4 66 -9.7 14.6
05:50 1024 30.24 853 25.19 -4.4 24 68 -9.5 15
05:55 1023 30.21 853 25.19 -4.5 23.8 66 -9.9 14.2
06:00 1023 30.21 853 25.19 -4.6 23.7 66 -9.9 14.1
06:05 1024 30.24 853 25.19 -5 23 68 -10 14
06:10 1024 30.24 853 25.19 -5.2 22.6 69 -10 14
06:15 1024 30.24 853 25.19 -4.8 23.3 68 -9.8 14.3
06:20 1024 30.24 853 25.19 -4.5 23.8 68 -9.5 14.9
06:25 1024 30.24 853 25.19 -4.6 23.8 69 -9.4 15.1
06:30 1024 30.24 853 25.19 -4.7 23.5 70 -9.3 15.3
06:35 1024 30.24 853 25.19 -4.8 23.4 71 -9.3 15.2
06:40 1024 30.24 853 25.19 -4.9 23.2 71 -9.4 15.1
06:45 1024 30.24 853 25.19 -4.8 23.3 72 -9.2 15.5
06:50 1024 30.24 853 25.19 -4.6 23.7 68 -9.6 14.7
06:55 1024 30.24 853 25.19 -4.4 24 68 -9.4 15
07:00 1024 30.24 853 25.19 -4.4 24 69 -9.4 15.1
07:05 1024 30.24 853 25.19 -4.5 23.9 69 -9.4 15.1
07:10 1024 30.24 853 25.19 -4.3 24.3 68 -9.3 15.2
07:15 1024 30.24 853 25.19 -3.9 24.9 67 -9.2 15.5
07:20 1024 30.24 853 25.19 -4.1 24.6 68 -9.1 15.7
07:25 1023 30.21 853 25.19 -4.2 24.4 62 -10.4 13.4
07:30 1023 30.21 852 25.16 -4.1 24.7 64 -9.8 14.3
07:35 1023 30.21 852 25.16 -3.9 25 63 -10 14.1
07:40 1023 30.21 852 25.16 -3.6 25.6 61 -10.1 13.8
07:45 1023 30.21 852 25.16 -3.9 24.9 67 -9.2 15.5
07:50 1023 30.21 852 25.16 -4.1 24.6 65 -9.7 14.6
07:55 1023 30.21 852 25.16 -3.8 25.1 65 -9.5 14.8
08:00 1023 30.21 852 25.16 -3.9 25.1 67 -9.2 15.5
08:05 1023 30.21 852 25.16 -4.1 24.6 66 -9.5 14.9
08:10 1023 30.21 852 25.16 -4 24.8 66 -9.4 15.1
08:15 1023 30.21 852 25.16 -4 24.8 65 -9.6 14.8
08:20 1023 30.21 852 25.16 -3.8 25.2 66 -9.3 15.3
08:25 1023 30.21 852 25.16 -3.3 26 62 -9.5 14.8
08:30 1023 30.21 852 25.16 -2.9 26.8 63 -9 15.9
08:35 1023 30.21 852 25.16 -2.8 27 64 -8.6 16.4
08:40 1023 30.21 852 25.16 -2.9 26.8 65 -8.6 16.4
08:45 1022 30.18 852 25.16 -3 26.6 63 -9.1 15.6
08:50 1023 30.21 852 25.16 -2.9 26.7 61 -9.4 15.1
08:55 1023 30.21 852 25.16 -2.9 26.7 61 -9.5 15
09:00 1023 30.21 852 25.16 -3 26.7 61 -9.5 15
09:05 1022 30.18 852 25.16 -2.9 26.7 60 -9.6 14.7
09:10 1023 30.21 852 25.16 -2.9 26.7 61 -9.5 15
09:15 1023 30.21 852 25.16 -3.1 26.3 62 -9.5 15
09:20 1023 30.21 852 25.16 -3.3 26 62 -9.6 14.8
09:25 1022 30.18 852 25.16 -3.6 25.5 63 -9.6 14.7
09:30 1022 30.18 852 25.16 -3.8 25.1 65 -9.6 14.8
09:35 1022 30.18 852 25.16 -3.7 25.3 63 -9.7 14.5
09:40 1022 30.18 852 25.16 -3.6 25.5 64 -9.5 14.9
09:45 1022 30.18 852 25.16 -3.4 25.9 63 -9.4 15.2
09:50 1022 30.18 852 25.16 -3.1 26.3 61 -9.6 14.7
09:55 1022 30.18 851 25.13 -3 26.6 60 -9.7 14.5
10:00 1022 30.18 851 25.13 -2.9 26.8 60 -9.5 14.9
10:05 1022 30.18 852 25.16 -2.6 27.2 60 -9.3 15.2
10:10 1022 30.18 852 25.16 -2.4 27.7 60 -9.2 15.4
10:15 1022 30.18 851 25.13 -2.4 27.6 61 -9 15.8
10:20 1022 30.18 851 25.13 -2.3 27.8 60 -9.1 15.6
10:25 1022 30.18 851 25.13 -1.9 28.5 58 -9.1 15.6
10:30 1022 30.18 851 25.13 -1.6 29.1 57 -9.1 15.6
10:35 1022 30.18 852 25.16 -1.6 29.2 57 -9 15.9
10:40 1022 30.18 852 25.16 -1.6 29.1 58 -8.8 16.1
10:45 1022 30.18 851 25.13 -1.5 29.3 57 -9 15.8
10:50 1022 30.18 851 25.13 -1 30.2 55 -8.9 16.1
10:55 1022 30.18 851 25.13 -0.9 30.4 56 -8.6 16.5
11:00 1022 30.18 851 25.13 -0.7 30.7 56 -8.6 16.6
11:05 1022 30.18 851 25.13 -0.3 31.5 54 -8.6 16.6
11:10 1022 30.18 851 25.13 -0.1 31.8 52 -8.7 16.3
11:15 1022 30.18 851 25.13 -0.2 31.7 55 -8.3 17.1
11:20 1022 30.18 851 25.13 0.3 32.6 52 -8.5 16.8
11:25 1022 30.18 851 25.13 0.9 33.6 51 -8.1 17.4
11:30 1022 30.18 851 25.13 0.7 33.2 50 -8.5 16.6
11:35 1022 30.18 851 25.13 0.8 33.4 51 -8.3 17.1
11:40 1022 30.18 851 25.13 1.1 33.9 49 -8.5 16.8
11:45 1022 30.18 851 25.13 1.5 34.7 48 -8.3 17
11:50 1022 30.18 851 25.13 1.6 34.9 48 -8.1 17.3
11:55 1021 30.15 851 25.13 1.2 34.2 50 -8.2 17.3
12:00 1021 30.15 851 25.13 1.1 34.1 50 -8.3 17.1
12:05 1021 30.15 850 25.1 1.2 34.1 51 -8 17.6
12:10 1021 30.15 850 25.1 1.5 34.6 50 -7.9 17.8
12:15 1021 30.15 850 25.1 1.6 34.9 49 -8 17.6
12:20 1021 30.15 850 25.1 2.4 36.2 47 -7.7 18.1
12:25 1021 30.15 850 25.1 2 35.6 50 -7.5 18.5
12:30 1021 30.15 850 25.1 1.5 34.6 51 -7.6 18.3
12:35 1021 30.15 850 25.1 1.9 35.5 48 -8 17.7
12:40 1021 30.15 850 25.1 2.9 37.2 45 -8 17.6
12:45 1021 30.15 850 25.1 2.7 36.8 46 -7.7 18.1
12:50 1020 30.12 850 25.1 2.2 36 47 -8 17.6
12:55 1020 30.12 850 25.1 2.3 36.1 48 -7.8 18
13:00 1020 30.12 849 25.07 2.1 35.8 48 -7.8 18
13:05 1020 30.12 849 25.07 2.1 35.9 48 -7.7 18.1
13:10 1020 30.12 849 25.07 1.9 35.4 50 -7.4 18.8
13:15 1020 30.12 849 25.07 2 35.6 49 -7.6 18.3
13:20 1020 30.12 849 25.07 1.9 35.4 50 -7.4 18.7
13:25 1020 30.12 849 25.07 1.7 35 52 -7.2 19
13:30 1020 30.12 849 25.07 1.7 35 51 -7.4 18.8
13:35 1020 30.12 849 25.07 1.8 35.2 52 -7 19.4
13:40 1020 30.12 849 25.07 2.1 35.7 50 -7.2 19
13:45 1020 30.12 849 25.07 1.5 34.8 51 -7.4 18.6
13:50 1020 30.12 849 25.07 1.3 34.4 52 -7.6 18.3
13:55 1019 30.09 849 25.07 1.5 34.6 50 -7.9 17.8
14:00 1019 30.09 849 25.07 1.7 35 51 -7.3 18.9
14:05 1019 30.09 849 25.07 2.5 36.6 49 -7 19.4
14:10 1019 30.09 848 25.04 2.4 36.4 49 -7.3 18.8
14:15 1019 30.09 848 25.04 2.2 35.9 52 -6.8 19.7
14:20 1019 30.09 848 25.04 2.6 36.6 49 -7.2 19.1
14:25 1019 30.09 848 25.04 2.7 36.8 47 -7.4 18.7
14:30 1019 30.09 848 25.04 2 35.6 51 -7.1 19.2
14:35 1019 30.09 848 25.04 1.6 34.9 51 -7.4 18.7
14:40 1019 30.09 848 25.04 1 33.8 54 -7.2 19.1
14:45 1019 30.09 848 25.04 0.8 33.4 53 -7.6 18.3
14:50 1019 30.09 848 25.04 0.7 33.2 55 -7.3 18.8
14:55 1019 30.09 848 25.04 1.2 34.1 53 -7.4 18.7
15:00 1019 30.09 848 25.04 1.5 34.7 51 -7.5 18.4
15:05 1019 30.09 848 25.04 1.6 34.8 51 -7.6 18.3
15:10 1019 30.09 848 25.04 1.7 35.1 49 -7.8 18
15:15 1019 30.09 848 25.04 1.7 35 50 -7.7 18.1
15:20 1019 30.09 848 25.04 1.7 35 50 -7.7 18.2
15:25 1019 30.09 848 25.04 1.7 35 51 -7.5 18.5
15:30 1019 30.09 848 25.04 1.5 34.8 52 -7.3 18.8
15:35 1019 30.09 848 25.04 1.6 34.8 51 -7.5 18.5
15:40 1019 30.09 848 25.04 1.5 34.7 53 -7.1 19.2
15:45 1019 30.09 848 25.04 1.5 34.6 54 -7 19.4
15:50 1018 30.06 848 25.04 1.6 34.9 52 -7.3 18.9
15:55 1018 30.06 848 25.04 1.5 34.7 53 -7 19.5
16:00 1018 30.06 848 25.04 1.4 34.5 54 -6.9 19.6
16:05 1018 30.06 848 25.04 1.1 34 55 -7 19.5
16:10 1018 30.06 847 25.01 0.7 33.2 57 -7 19.5
16:15 1018 30.06 847 25.01 0.4 32.7 58 -7 19.4
16:20 1018 30.06 847 25.01 0.3 32.5 59 -6.8 19.8
16:25 1018 30.06 847 25.01 0.2 32.3 59 -6.9 19.5
16:30 1018 30.06 847 25.01 -0.1 31.8 60 -6.9 19.5
16:35 1018 30.06 847 25.01 -0.4 31.3 61 -7.1 19.3
16:40 1018 30.06 847 25.01 -0.5 31.2 60 -7.2 19
16:45 1018 30.06 847 25.01 -0.1 31.8 58 -7.5 18.5
16:50 1018 30.06 847 25.01 0.1 32.2 58 -7.2 19.1
16:55 1018 30.06 847 25.01 0.2 32.3 58 -7.1 19.3
17:00 1018 30.06 847 25.01 -0.1 31.8 60 -7.1 19.3
17:05 1018 30.06 847 25.01 -0.5 31.1 61 -7.1 19.3
17:10 1018 30.06 847 25.01 -0.6 30.9 62 -7.1 19.2
17:15 1018 30.06 847 25.01 -0.7 30.7 62 -7.2 19.1
17:20 1018 30.06 847 25.01 -0.8 30.6 63 -7 19.4
17:25 1018 30.06 847 25.01 -1.2 29.9 64 -7.2 19
17:30 1018 30.06 847 25.01 -1.3 29.6 64 -7.3 18.8
17:35 1018 30.06 847 25.01 -1.3 29.6 63 -7.4 18.7
17:40 1018 30.06 847 25.01 -1.3 29.6 64 -7.4 18.7
17:45 1018 30.06 847 25.01 -1.3 29.7 64 -7.2 19
17:50 1018 30.06 847 25.01 -1.2 29.8 65 -7 19.3
17:55 1018 30.06 847 25.01 -1.3 29.6 66 -6.9 19.6
18:00 1018 30.06 847 25.01 -1.3 29.7 66 -6.9 19.5
18:05 1018 30.06 847 25.01 -1.4 29.4 66 -7 19.4
18:10 1018 30.06 847 25.01 -1.3 29.6 65 -7 19.4
18:15 1018 30.06 847 25.01 -1.4 29.5 67 -6.8 19.8
18:20 1018 30.06 847 25.01 -1.5 29.3 67 -6.8 19.8
18:25 1017 30.03 847 25.01 -1.7 28.9 69 -6.8 19.8
18:30 1017 30.03 847 25.01 -1.7 29 68 -6.8 19.8
18:35 1017 30.03 847 25.01 -1.4 29.5 67 -6.7 19.9
18:40 1017 30.03 847 25.01 -1.4 29.6 67 -6.8 19.8
18:45 1017 30.03 847 25.01 -1.3 29.7 66 -6.9 19.6
18:50 1017 30.03 847 25.01 -1.3 29.6 67 -6.8 19.8
18:55 1017 30.03 847 25.01 -1.2 29.9 67 -6.6 20.1
19:00 1017 30.03 847 25.01 -1.1 30 69 -6.2 20.8
19:05 1017 30.03 847 25.01 -1.4 29.5 70 -6.2 20.8
19:10 1017 30.03 846 24.98 -1.4 29.5 69 -6.4 20.4
19:15 1017 30.03 846 24.98 -1.6 29.1 68 -6.7 19.9
19:20 1017 30.03 846 24.98 -1.4 29.5 68 -6.5 20.3
19:25 1017 30.03 846 24.98 -1.4 29.4 68 -6.6 20.2
19:30 1017 30.03 846 24.98 -1.3 29.7 68 -6.3 20.6
19:35 1017 30.03 846 24.98 -1.5 29.3 68 -6.6 20.1
19:40 1017 30.03 846 24.98 -1.8 28.8 69 -6.8 19.7
19:45 1017 30.03 846 24.98 -1.7 29 68 -6.9 19.5
19:50 1017 30.03 846 24.98 -1.6 29.2 67 -6.9 19.6
19:55 1017 30.03 846 24.98 -1.4 29.4 67 -6.8 19.7
20:00 1017 30.03 846 24.98 -1.6 29.1 68 -6.8 19.8
20:05 1017 30.03 846 24.98 -1.7 29 68 -6.9 19.6
20:10 1017 30.03 846 24.98 -1.6 29.2 67 -6.9 19.6
20:15 1017 30.03 846 24.98 -1.3 29.6 66 -6.9 19.5
20:20 1017 30.03 846 24.98 -1.3 29.7 66 -6.8 19.8
20:25 1017 30.03 846 24.98 -1.3 29.6 67 -6.7 19.9
20:30 1017 30.03 846 24.98 -1.3 29.7 66 -6.8 19.8
20:35 1017 30.03 846 24.98 -1.2 29.8 66 -6.7 19.9
20:40 1017 30.03 846 24.98 -1 30.1 66 -6.6 20.1
20:45 1017 30.03 846 24.98 -1 30.2 66 -6.5 20.3
20:50 1017 30.03 846 24.98 -1.1 30 67 -6.5 20.3
20:55 1017 30.03 846 24.98 -1.3 29.7 67 -6.6 20.2
21:00 1017 30.03 846 24.98 -1.4 29.5 68 -6.5 20.4
21:05 1017 30.03 846 24.98 -1.3 29.6 68 -6.5 20.3
21:10 1017 30.03 846 24.98 -1.2 29.9 67 -6.4 20.4
21:15 1017 30.03 846 24.98 -1 30.2 67 -6.4 20.5
21:20 1017 30.03 846 24.98 -0.8 30.6 66 -6.4 20.5
21:25 1017 30.03 846 24.98 -0.6 30.9 65 -6.4 20.5
21:30 1017 30.03 846 24.98 -0.6 30.9 65 -6.4 20.5
21:35 1017 30.03 846 24.98 -0.8 30.6 66 -6.4 20.5
21:40 1016 30 846 24.98 -0.8 30.5 66 -6.4 20.4
21:45 1016 30 846 24.98 -0.8 30.5 66 -6.3 20.6
21:50 1016 30 846 24.98 -0.9 30.5 69 -5.9 21.3
21:55 1016 30 845 24.95 -1 30.1 69 -6.1 21.1
22:00 1016 30 845 24.95 -1.1 30 71 -5.7 21.7
22:05 1016 30 845 24.95 -1.4 29.5 75 -5.3 22.5
22:10 1016 30 845 24.95 -1.4 29.5 72 -5.8 21.5
22:15 1016 30 845 24.95 -1.4 29.6 71 -5.9 21.3
22:20 1016 30 845 24.95 -1.5 29.2 73 -5.8 21.6
22:25 1016 30 845 24.95 -1.9 28.6 74 -5.9 21.4
22:30 1016 30 845 24.95 -1.8 28.8 73 -6 21.3
22:35 1016 30 845 24.95 -1.7 29 72 -6.1 21
22:40 1016 30 845 24.95 -1.2 29.8 68 -6.3 20.6
22:45 1016 30 845 24.95 -0.8 30.5 66 -6.3 20.6
22:50 1016 30 845 24.95 -0.9 30.4 67 -6.2 20.8
22:55 1016 30 845 24.95 -0.7 30.8 65 -6.4 20.4
23:00 1016 30 845 24.95 -0.6 30.9 65 -6.5 20.3
23:05 1016 30 845 24.95 -0.9 30.4 67 -6.2 20.9
23:10 1016 30 845 24.95 -0.8 30.5 64 -6.7 19.9
23:15 1016 30 845 24.95 -0.4 31.3 64 -6.4 20.5
23:20 1016 30 845 24.95 -0.4 31.3 63 -6.6 20
23:25 1016 30 845 24.95 -0.2 31.6 64 -6.3 20.6
23:30 1016 30 845 24.95 -0.6 30.9 66 -6.2 20.8
23:35 1016 30 845 24.95 -0.8 30.5 67 -6.1 21
23:40 1016 30 845 24.95 -0.9 30.3 66 -6.6 20.2
23:45 1016 30 845 24.95 -0.9 30.4 68 -6.1 21
23:50 1016 30 845 24.95 -1.4 29.4 73 -5.7 21.8
23:55 1016 30 845 24.95 -1.5 29.3 72 -5.9 21.5
24:00 1016 30 845 24.95 -1.3 29.6 71 -5.9 21.3